createdAt,value
2022-12-14T00:00:13.166Z,18.08
2022-12-14T00:02:41.549Z,21.45
2022-12-14T00:05:10.793Z,22.63
2022-12-14T00:07:39.061Z,18.90
2022-12-14T00:10:08.488Z,21.67
2022-12-14T00:12:36.743Z,26.77
2022-12-14T00:15:08.837Z,20.23
2022-12-14T00:17:37.195Z,17.75
2022-12-14T00:20:07.239Z,18.83
2022-12-14T00:22:35.636Z,18.92
2022-12-14T00:25:04.669Z,17.85
2022-12-14T00:27:33.095Z,25.42
2022-12-14T00:30:01.451Z,21.25
2022-12-14T00:32:31.064Z,24.42
2022-12-14T00:35:01.418Z,22.08
2022-12-14T00:37:29.712Z,23.13
2022-12-14T00:39:58.003Z,23.50
2022-12-14T00:42:26.450Z,17.02
2022-12-14T00:44:54.824Z,20.77
2022-12-14T00:47:23.285Z,20.38
2022-12-14T00:49:53.462Z,26.35
2022-12-14T00:52:21.975Z,18.40
2022-12-14T00:54:50.330Z,19.55
2022-12-14T00:57:18.617Z,19.60
2022-12-14T00:59:46.874Z,18.63
2022-12-14T01:02:15.263Z,16.77
2022-12-14T01:04:43.664Z,19.52
2022-12-14T01:07:13.811Z,15.82
2022-12-14T01:09:42.211Z,22.42
2022-12-14T01:12:10.536Z,18.02
2022-12-14T01:14:38.832Z,17.88
2022-12-14T01:17:08.029Z,19.05
2022-12-14T01:19:36.324Z,15.95
2022-12-14T01:22:05.312Z,14.57
2022-12-14T01:24:34.959Z,22.30
2022-12-14T01:27:03.933Z,23.73
2022-12-14T01:29:32.342Z,16.38
2022-12-14T01:32:00.783Z,24.75
2022-12-14T01:34:29.075Z,17.58
2022-12-14T01:36:57.480Z,19.55
2022-12-14T01:39:25.878Z,18.63
2022-12-14T01:41:55.985Z,22.25
2022-12-14T01:45:04.409Z,16.48
2022-12-14T01:47:42.151Z,19.48
2022-12-14T01:50:19.952Z,16.35
2022-12-14T01:52:52.936Z,17.70
2022-12-14T01:55:26.000Z,25.02
2022-12-14T01:58:01.182Z,19.65
2022-12-14T02:00:29.609Z,14.70
2022-12-14T02:03:03.572Z,20.92
2022-12-14T02:05:34.570Z,25.60
2022-12-14T02:08:04.010Z,19.38
2022-12-14T02:10:34.664Z,17.38
2022-12-14T02:13:14.653Z,22.17
2022-12-14T02:15:44.464Z,16.63
2022-12-14T02:18:19.023Z,17.92
2022-12-14T02:21:06.951Z,22.45
2022-12-14T02:24:18.781Z,15.07
2022-12-14T02:27:11.164Z,13.98
2022-12-14T02:30:00.796Z,19.33
2022-12-14T02:32:50.575Z,15.27
2022-12-14T02:35:28.032Z,14.98
2022-12-14T02:38:08.892Z,17.40
2022-12-14T02:40:46.298Z,18.90
2022-12-14T02:43:24.067Z,18.00
2022-12-14T02:46:04.498Z,13.10
2022-12-14T02:48:40.684Z,23.65
2022-12-14T02:51:19.793Z,18.33
2022-12-14T02:53:54.963Z,16.42
2022-12-14T02:56:32.764Z,18.90
2022-12-14T02:59:02.839Z,19.08
2022-12-14T03:01:33.817Z,22.15
2022-12-14T03:04:03.491Z,16.42
2022-12-14T03:06:32.186Z,12.77
2022-12-14T03:09:05.930Z,24.20
2022-12-14T03:11:42.433Z,16.52
2022-12-14T03:14:17.901Z,16.80
2022-12-14T03:16:52.056Z,19.05
2022-12-14T03:19:25.986Z,19.08
2022-12-14T03:22:00.807Z,21.83
2022-12-14T03:24:35.908Z,18.15
2022-12-14T03:27:13.926Z,14.98
2022-12-14T03:29:46.986Z,16.70
2022-12-14T03:32:24.309Z,15.85
2022-12-14T03:35:01.361Z,18.70
2022-12-14T03:37:39.070Z,18.30
2022-12-14T03:40:11.733Z,14.77
2022-12-14T03:42:49.457Z,13.07
2022-12-14T03:45:24.236Z,15.00
2022-12-14T03:48:11.694Z,19.33
2022-12-14T03:50:46.200Z,13.98
2022-12-14T03:53:22.693Z,21.65
2022-12-14T03:56:02.104Z,19.45
2022-12-14T03:58:41.343Z,14.93
2022-12-14T04:01:18.779Z,21.02
2022-12-14T04:03:59.003Z,17.25
2022-12-14T04:06:35.596Z,23.27
2022-12-14T04:09:16.372Z,18.23
2022-12-14T04:12:09.533Z,16.20
2022-12-14T04:15:08.972Z,22.20
2022-12-14T04:17:57.959Z,20.90
2022-12-14T04:20:32.621Z,18.63
2022-12-14T04:23:08.579Z,16.42
2022-12-14T04:25:59.474Z,14.68
2022-12-14T04:28:50.114Z,17.08
2022-12-14T04:31:24.586Z,20.90
2022-12-14T04:33:58.580Z,19.48
2022-12-14T04:36:35.185Z,16.98
2022-12-14T04:39:10.411Z,20.95
2022-12-14T04:41:46.005Z,18.75
2022-12-14T04:44:22.566Z,15.45
2022-12-14T04:46:54.141Z,20.08
2022-12-14T04:49:30.500Z,15.32
2022-12-14T04:52:06.069Z,16.40
2022-12-14T04:54:43.590Z,17.08
2022-12-14T04:57:19.430Z,20.02
2022-12-14T04:59:49.153Z,19.48
2022-12-14T05:02:28.930Z,16.17
2022-12-14T05:05:04.191Z,15.05
2022-12-14T05:07:48.812Z,17.83
2022-12-14T05:10:21.695Z,19.70
2022-12-14T05:12:58.680Z,19.33
2022-12-14T05:15:33.811Z,14.70
2022-12-14T05:18:04.659Z,18.10
2022-12-14T05:20:33.759Z,15.52
2022-12-14T05:23:03.591Z,17.20
2022-12-14T05:25:31.990Z,21.08
2022-12-14T05:28:00.439Z,20.15
2022-12-14T05:30:29.080Z,20.00
2022-12-14T05:32:57.906Z,17.98
2022-12-14T05:35:26.499Z,25.00
2022-12-14T05:37:55.128Z,18.60
2022-12-14T05:40:24.787Z,20.25
2022-12-14T05:42:55.853Z,17.85
2022-12-14T05:45:24.332Z,18.27
2022-12-14T05:47:52.835Z,14.02
2022-12-14T05:50:24.079Z,18.80
2022-12-14T05:52:52.815Z,10.18
2022-12-14T05:55:21.236Z,15.73
2022-12-14T05:57:51.070Z,18.48
2022-12-14T06:00:20.085Z,20.80
2022-12-14T06:02:48.416Z,20.88
2022-12-14T06:05:16.966Z,16.00
2022-12-14T06:07:45.374Z,17.90
2022-12-14T06:10:13.982Z,19.38
2022-12-14T06:12:43.623Z,17.70
2022-12-14T06:15:14.070Z,16.75
2022-12-14T06:17:44.663Z,19.20
2022-12-14T06:20:14.580Z,13.38
2022-12-14T06:22:47.540Z,15.27
2022-12-14T06:25:16.872Z,16.25
2022-12-14T06:27:45.218Z,15.80
2022-12-14T06:30:16.943Z,17.15
2022-12-14T06:32:45.545Z,21.00
2022-12-14T06:35:14.098Z,21.35
2022-12-14T06:37:42.367Z,13.63
2022-12-14T06:40:17.456Z,17.30
2022-12-14T06:42:47.885Z,16.80
2022-12-14T06:45:17.824Z,16.90
2022-12-14T06:47:46.189Z,15.77
2022-12-14T06:50:15.020Z,16.17
2022-12-14T06:52:43.512Z,17.92
2022-12-14T06:55:11.915Z,14.18
2022-12-14T06:57:40.195Z,16.20
2022-12-14T07:00:12.308Z,13.95
2022-12-14T07:02:42.164Z,15.15
2022-12-14T07:05:10.851Z,17.52
2022-12-14T07:07:39.168Z,14.75
2022-12-14T07:10:10.177Z,19.67
2022-12-14T07:12:38.706Z,18.70
2022-12-14T07:15:08.619Z,19.35
2022-12-14T07:17:38.351Z,18.33
2022-12-14T07:20:10.791Z,15.35
2022-12-14T07:22:40.766Z,15.52
2022-12-14T07:25:09.854Z,21.73
2022-12-14T07:27:38.179Z,19.90
2022-12-14T07:30:09.234Z,20.15
2022-12-14T07:32:37.486Z,18.73
2022-12-14T07:35:13.087Z,20.40
2022-12-14T07:37:49.309Z,15.95
2022-12-14T07:40:18.602Z,22.05
2022-12-14T07:42:50.348Z,19.67
2022-12-14T07:45:19.018Z,17.63
2022-12-14T07:47:47.482Z,19.65
2022-12-14T07:50:18.110Z,21.83
2022-12-14T07:52:46.974Z,23.70
2022-12-14T07:55:16.537Z,19.65
2022-12-14T07:57:44.899Z,26.83
2022-12-14T08:00:14.929Z,25.13
2022-12-14T08:02:43.372Z,16.75
2022-12-14T08:05:12.971Z,22.30
2022-12-14T08:07:42.900Z,17.17
2022-12-14T08:10:11.490Z,16.88
2022-12-14T08:12:40.100Z,16.67
2022-12-14T08:15:10.425Z,16.10
2022-12-14T08:17:38.781Z,18.70
2022-12-14T08:20:08.665Z,18.38
2022-12-14T08:22:37.016Z,14.60
2022-12-14T08:25:08.610Z,15.82
2022-12-14T08:27:37.105Z,18.77
2022-12-14T08:30:06.731Z,17.30
2022-12-14T08:32:35.085Z,20.02
2022-12-14T08:35:03.568Z,15.23
2022-12-14T08:37:31.888Z,22.38
2022-12-14T08:40:00.557Z,16.85
2022-12-14T08:42:30.438Z,17.90
2022-12-14T08:44:58.945Z,16.33
2022-12-14T08:47:27.361Z,26.88
2022-12-14T08:49:55.756Z,24.38
2022-12-14T08:52:24.053Z,18.88
2022-12-14T08:54:52.344Z,26.85
2022-12-14T08:57:21.024Z,21.77
2022-12-14T09:00:06.265Z,25.15
2022-12-14T09:02:35.009Z,22.10
2022-12-14T09:05:03.876Z,23.13
2022-12-14T09:07:33.427Z,21.27
2022-12-14T09:10:01.755Z,26.33
2022-12-14T09:12:30.152Z,19.48
2022-12-14T09:15:01.094Z,20.92
2022-12-14T09:17:29.496Z,22.08
2022-12-14T09:19:58.368Z,23.20
2022-12-14T09:22:26.942Z,23.73
2022-12-14T09:24:55.306Z,17.55
2022-12-14T09:27:23.644Z,19.55
2022-12-14T09:29:52.225Z,25.58
2022-12-14T09:32:22.106Z,23.58
2022-12-14T09:34:50.421Z,21.08
2022-12-14T09:37:18.712Z,19.23
2022-12-14T09:39:47.067Z,16.95
2022-12-14T09:42:40.005Z,19.15
2022-12-14T09:45:17.796Z,24.02
2022-12-14T09:47:58.553Z,29.65
2022-12-14T09:50:27.774Z,24.17
2022-12-14T09:53:00.549Z,21.10
2022-12-14T09:55:33.751Z,23.38
2022-12-14T09:58:08.661Z,16.05
2022-12-14T10:00:49.617Z,28.42
2022-12-14T10:03:42.865Z,22.08
2022-12-14T10:06:37.370Z,14.93
2022-12-14T10:09:19.688Z,20.80
2022-12-14T10:12:02.673Z,18.45
2022-12-14T10:14:56.242Z,16.73
2022-12-14T10:17:34.614Z,22.90
2022-12-14T10:20:15.879Z,18.67
2022-12-14T10:22:52.452Z,16.38
2022-12-14T10:25:24.856Z,24.35
2022-12-14T10:28:10.999Z,17.33
2022-12-14T10:30:41.918Z,12.27
2022-12-14T10:33:18.124Z,15.05
2022-12-14T10:35:53.203Z,20.63
2022-12-14T10:38:29.693Z,20.70
2022-12-14T10:41:15.425Z,16.08
2022-12-14T10:43:56.336Z,20.00
2022-12-14T10:46:38.850Z,19.98
2022-12-14T10:49:16.689Z,15.00
2022-12-14T10:51:52.888Z,22.27
2022-12-14T10:54:33.802Z,21.02
2022-12-14T10:57:03.004Z,16.80
2022-12-14T10:59:44.766Z,18.42
2022-12-14T11:02:28.769Z,11.35
2022-12-14T11:05:00.216Z,19.67
2022-12-14T11:07:43.015Z,21.20
2022-12-14T11:10:18.906Z,21.83
2022-12-14T11:13:03.423Z,21.88
2022-12-14T11:15:36.306Z,20.75
2022-12-14T11:18:09.207Z,16.88
2022-12-14T11:20:37.692Z,18.85
2022-12-14T11:23:20.803Z,15.85
2022-12-14T11:25:51.520Z,19.00
2022-12-14T11:28:36.408Z,14.95
2022-12-14T11:31:08.477Z,17.33
2022-12-14T11:33:40.589Z,17.35
2022-12-14T11:36:10.089Z,12.63
2022-12-14T11:38:39.753Z,21.58
2022-12-14T11:41:11.932Z,12.70
2022-12-14T11:43:41.643Z,15.50
2022-12-14T11:46:09.973Z,13.93
2022-12-14T11:48:47.367Z,15.13
2022-12-14T11:51:15.650Z,14.53
2022-12-14T11:53:47.357Z,15.93
2022-12-14T11:56:19.050Z,18.50
2022-12-14T11:58:54.810Z,15.17
2022-12-14T12:01:27.533Z,13.07
2022-12-14T12:03:59.377Z,17.03
2022-12-14T12:06:30.934Z,14.43
2022-12-14T12:09:05.367Z,13.13
2022-12-14T12:11:36.288Z,13.30
2022-12-14T12:14:08.428Z,13.10
2022-12-14T12:16:37.552Z,16.70
2022-12-14T12:19:12.397Z,17.00
2022-12-14T12:21:44.711Z,15.47
2022-12-14T12:24:21.928Z,11.23
2022-12-14T12:26:53.911Z,14.50
2022-12-14T12:29:30.958Z,15.70
2022-12-14T12:33:53.535Z,13.30
2022-12-14T12:36:24.520Z,11.70
2022-12-14T12:39:06.798Z,11.70
2022-12-14T12:41:47.532Z,10.30
2022-12-14T12:44:39.425Z,13.50
2022-12-14T12:47:34.437Z,14.47
2022-12-14T12:50:16.885Z,12.87
2022-12-14T12:53:02.637Z,9.83
2022-12-14T12:55:36.613Z,13.53
2022-12-14T12:58:09.846Z,13.23
2022-12-14T13:00:41.231Z,10.43
2022-12-14T13:03:23.360Z,10.30
2022-12-14T13:05:57.496Z,11.37
2022-12-14T13:08:33.277Z,13.13
2022-12-14T13:14:01.750Z,12.53
2022-12-14T13:16:36.008Z,11.03
2022-12-14T13:19:48.892Z,11.90
2022-12-14T13:22:08.803Z,8.93
2022-12-14T13:24:39.201Z,13.90
2022-12-14T13:27:54.682Z,13.00
2022-12-14T13:30:35.872Z,10.93
2022-12-14T13:33:42.558Z,11.33
2022-12-14T13:37:05.176Z,13.00
2022-12-14T13:40:26.001Z,12.37
2022-12-14T13:43:06.953Z,12.50
2022-12-14T13:45:41.248Z,14.37
2022-12-14T13:48:21.588Z,14.67
2022-12-14T13:51:01.794Z,17.77
2022-12-14T13:53:36.375Z,11.57
2022-12-14T13:56:07.349Z,17.37
2022-12-14T13:58:41.095Z,13.07
2022-12-14T14:01:14.889Z,15.00
2022-12-14T14:03:55.361Z,14.63
2022-12-14T14:06:41.202Z,14.27
2022-12-14T14:10:02.702Z,16.90
2022-12-14T14:12:40.325Z,13.80
2022-12-14T14:16:28.426Z,13.67
2022-12-14T14:18:53.272Z,15.73
2022-12-14T14:21:58.819Z,17.47
2022-12-14T14:24:29.464Z,13.23
2022-12-14T14:27:12.457Z,12.50
2022-12-14T14:29:49.401Z,12.17
2022-12-14T14:32:39.527Z,13.23
2022-12-14T14:35:23.356Z,11.50
2022-12-14T14:38:01.764Z,12.07
2022-12-14T14:43:31.258Z,7.70
2022-12-14T14:46:05.752Z,12.50
2022-12-14T14:48:39.785Z,10.87
2022-12-14T14:51:21.347Z,11.88
2022-12-14T14:53:50.174Z,12.60
2022-12-14T14:56:38.207Z,17.80
2022-12-14T14:59:51.083Z,12.05
2022-12-14T15:02:42.158Z,15.50
2022-12-14T15:08:19.698Z,10.67
2022-12-14T15:10:49.679Z,14.30
2022-12-14T15:13:24.040Z,12.27
2022-12-14T15:15:54.920Z,15.13
2022-12-14T15:18:27.781Z,15.35
2022-12-14T15:21:01.905Z,14.52
2022-12-14T15:23:37.466Z,14.43
2022-12-14T15:26:17.098Z,10.07
2022-12-14T15:28:53.797Z,13.02
2022-12-14T15:31:32.134Z,21.23
2022-12-14T15:34:04.106Z,13.48
2022-12-14T15:36:37.845Z,14.25
2022-12-14T15:45:15.598Z,14.63
2022-12-14T15:47:44.098Z,12.82
2022-12-14T15:50:32.806Z,13.63
2022-12-14T15:53:14.262Z,13.27
2022-12-14T15:55:44.366Z,13.27
2022-12-14T15:58:24.601Z,16.27
2022-12-14T16:00:53.836Z,15.63
2022-12-14T16:03:31.455Z,15.73
2022-12-14T16:06:02.868Z,18.65
2022-12-14T16:08:35.184Z,22.23
2022-12-14T16:11:23.245Z,16.15
2022-12-14T16:14:22.118Z,14.73
2022-12-14T16:16:51.066Z,20.48
2022-12-14T16:19:27.760Z,23.60
2022-12-14T16:22:23.082Z,16.40
2022-12-14T16:25:19.322Z,22.52
2022-12-14T16:27:50.738Z,27.60
2022-12-14T16:30:25.206Z,32.45
2022-12-14T16:33:07.546Z,30.17
2022-12-14T16:54:32.774Z,25.60
2022-12-14T16:57:07.051Z,35.63
2022-12-14T16:59:41.963Z,34.15
2022-12-14T17:02:32.005Z,30.10
2022-12-14T17:05:04.325Z,29.00
2022-12-14T17:07:36.376Z,29.42
2022-12-14T17:10:05.971Z,26.85
2022-12-14T17:12:34.498Z,26.42
2022-12-14T17:15:03.124Z,28.88
2022-12-14T17:17:37.031Z,25.60
2022-12-14T17:20:13.433Z,27.13
2022-12-14T17:22:44.247Z,27.17
2022-12-14T17:25:19.162Z,24.40
2022-12-14T17:27:49.496Z,22.65
2022-12-14T17:30:21.913Z,43.08
2022-12-14T17:33:01.918Z,25.50
2022-12-14T17:35:32.929Z,23.25
2022-12-14T17:38:01.730Z,21.08
2022-12-14T17:40:30.246Z,26.55
2022-12-14T17:42:59.875Z,26.08
2022-12-14T17:45:30.230Z,30.55
2022-12-14T17:48:01.282Z,27.15
2022-12-14T17:50:31.003Z,25.95
2022-12-14T17:53:00.582Z,29.98
2022-12-14T17:55:30.468Z,29.40
2022-12-14T17:57:59.121Z,30.17
2022-12-14T18:00:48.477Z,31.30
2022-12-14T18:03:20.174Z,27.67
2022-12-14T18:05:50.791Z,30.50
2022-12-14T18:08:19.947Z,46.30
2022-12-14T18:10:51.998Z,24.05
2022-12-14T18:13:21.357Z,18.15
2022-12-14T18:15:52.244Z,20.50
2022-12-14T18:18:25.650Z,25.85
2022-12-14T18:20:56.783Z,31.10
2022-12-14T18:23:25.651Z,41.92
2022-12-14T18:25:56.512Z,48.42
2022-12-14T18:28:26.417Z,57.55
2022-12-14T18:31:00.006Z,55.40
2022-12-14T18:33:32.022Z,36.78
2022-12-14T18:36:00.812Z,35.75
2022-12-14T18:38:31.443Z,32.13
2022-12-14T18:41:01.707Z,27.35
2022-12-14T18:43:30.947Z,30.15
2022-12-14T18:46:02.167Z,40.03
2022-12-14T18:48:32.009Z,29.58
2022-12-14T18:51:00.917Z,26.58
2022-12-14T18:53:30.320Z,30.05
2022-12-14T18:55:59.875Z,27.52
2022-12-14T18:58:30.467Z,25.55
2022-12-14T19:01:00.894Z,26.63
2022-12-14T19:03:34.101Z,28.83
2022-12-14T19:06:42.337Z,25.08
2022-12-14T19:08:58.106Z,23.73
2022-12-14T19:11:34.067Z,30.23
2022-12-14T19:14:05.042Z,24.15
2022-12-14T19:16:33.593Z,19.20
2022-12-14T19:19:05.325Z,26.30
2022-12-14T19:21:33.825Z,30.50
2022-12-14T19:24:02.249Z,30.13
2022-12-14T19:26:31.865Z,63.28
2022-12-14T19:29:00.362Z,51.40
2022-12-14T19:31:29.139Z,49.97
2022-12-14T19:33:57.761Z,54.92
2022-12-14T19:36:27.797Z,53.67
2022-12-14T19:38:56.311Z,44.55
2022-12-14T19:41:24.671Z,44.15
2022-12-14T19:43:53.343Z,54.92
2022-12-14T19:46:23.939Z,39.80
2022-12-14T19:48:52.690Z,31.70
2022-12-14T19:51:23.845Z,34.03
2022-12-14T19:53:55.547Z,46.97
2022-12-14T19:56:24.094Z,42.63
2022-12-14T19:58:52.524Z,50.88
2022-12-14T20:01:21.149Z,46.15
2022-12-14T20:03:50.300Z,30.50
2022-12-14T20:06:18.988Z,21.90
2022-12-14T20:08:49.519Z,26.88
2022-12-14T20:11:20.512Z,23.83
2022-12-14T20:13:53.286Z,27.27
2022-12-14T20:16:26.537Z,20.50
2022-12-14T20:18:55.625Z,30.33
2022-12-14T20:21:24.253Z,44.72
2022-12-14T20:23:52.616Z,37.60
2022-12-14T20:26:24.076Z,36.72
2022-12-14T20:28:54.253Z,50.28
2022-12-14T20:31:23.460Z,39.78
2022-12-14T20:33:51.971Z,124.25
2022-12-14T20:36:25.789Z,63.55
2022-12-14T20:39:01.579Z,73.43
2022-12-14T20:41:32.731Z,49.28
2022-12-14T20:44:02.928Z,37.75
2022-12-14T20:46:33.835Z,33.60
2022-12-14T20:49:06.805Z,34.08
2022-12-14T20:51:38.276Z,38.28
2022-12-14T20:54:09.496Z,33.38
2022-12-14T20:56:40.080Z,39.20
2022-12-14T20:59:10.069Z,37.90
2022-12-14T21:01:40.613Z,30.25
2022-12-14T21:04:10.261Z,30.92
2022-12-14T21:06:40.505Z,30.88
2022-12-14T21:09:13.391Z,29.15
2022-12-14T21:12:03.373Z,29.08
2022-12-14T21:14:35.134Z,28.40
2022-12-14T21:17:05.746Z,22.50
2022-12-14T21:19:35.998Z,25.75
2022-12-14T21:22:04.646Z,38.78
2022-12-14T21:27:26.072Z,31.92
2022-12-14T21:29:55.291Z,40.15
2022-12-14T21:32:24.367Z,22.85
2022-12-14T21:34:52.934Z,26.23
2022-12-14T21:37:24.594Z,25.65
2022-12-14T21:39:54.154Z,25.35
2022-12-14T21:42:24.996Z,25.90
2022-12-14T21:44:55.222Z,27.73
2022-12-14T21:47:26.676Z,25.20
2022-12-14T21:49:55.545Z,32.42
2022-12-14T21:52:27.072Z,24.83
2022-12-14T21:54:55.919Z,27.08
2022-12-14T21:57:49.946Z,28.85
2022-12-14T22:00:20.838Z,26.77
2022-12-14T22:02:49.598Z,34.80
2022-12-14T22:05:18.555Z,27.73
2022-12-14T22:07:47.017Z,24.02
2022-12-14T22:10:18.806Z,25.67
2022-12-14T22:12:52.730Z,30.05
2022-12-14T22:15:21.398Z,26.17
2022-12-14T22:17:51.852Z,27.08
2022-12-14T22:20:23.404Z,28.20
2022-12-14T22:22:51.746Z,24.10
2022-12-14T22:25:20.146Z,26.90
2022-12-14T22:27:49.750Z,27.63
2022-12-14T22:30:21.187Z,22.13
2022-12-14T22:32:49.513Z,28.85
2022-12-14T22:35:18.160Z,24.30
2022-12-14T22:37:46.734Z,24.90
2022-12-14T22:40:18.631Z,29.20
2022-12-14T22:42:46.980Z,32.00
2022-12-14T22:45:15.620Z,23.58
2022-12-14T22:47:45.508Z,26.10
2022-12-14T22:50:13.871Z,26.17
2022-12-14T22:52:42.372Z,25.92
2022-12-14T22:55:12.474Z,22.40
2022-12-14T22:57:46.251Z,26.08
2022-12-14T23:00:16.968Z,23.52
2022-12-14T23:02:48.913Z,27.00
2022-12-14T23:05:18.468Z,33.50
2022-12-14T23:07:47.515Z,26.38
2022-12-14T23:10:33.530Z,25.52
2022-12-14T23:13:20.504Z,28.42
2022-12-14T23:16:06.573Z,32.42
2022-12-14T23:18:53.835Z,33.47
2022-12-14T23:21:39.476Z,32.03
2022-12-14T23:24:26.665Z,24.02
2022-12-14T23:27:12.621Z,22.65
2022-12-14T23:29:58.876Z,20.85
2022-12-14T23:32:45.497Z,21.92
2022-12-14T23:35:33.186Z,19.95
2022-12-14T23:38:23.628Z,21.55
2022-12-14T23:41:09.531Z,26.00
2022-12-14T23:43:55.312Z,19.67
2022-12-14T23:46:41.243Z,20.95
2022-12-14T23:49:27.460Z,22.95
2022-12-14T23:52:17.452Z,21.23
2022-12-14T23:55:03.340Z,22.10
2022-12-14T23:57:48.980Z,17.20
